createdAt,value
2022-08-09T00:00:21.534Z,18.90
2022-08-09T00:02:51.968Z,18.90
2022-08-09T00:06:19.204Z,18.90
2022-08-09T00:08:12.888Z,18.80
2022-08-09T00:10:59.580Z,18.90
2022-08-09T00:13:28.434Z,18.90
2022-08-09T00:16:02.433Z,18.90
2022-08-09T00:18:34.725Z,18.80
2022-08-09T00:21:05.192Z,18.80
2022-08-09T00:23:56.288Z,18.80
2022-08-09T00:26:30.092Z,18.80
2022-08-09T00:29:02.347Z,18.80
2022-08-09T00:32:00.823Z,18.80
2022-08-09T00:34:19.632Z,18.80
2022-08-09T00:36:48.977Z,18.80
2022-08-09T00:40:09.000Z,18.80
2022-08-09T00:44:10.934Z,18.90
2022-08-09T00:44:56.310Z,18.80
2022-08-09T00:47:25.530Z,18.80
2022-08-09T00:49:56.389Z,18.80
2022-08-09T00:52:30.298Z,18.80
2022-08-09T00:55:01.010Z,18.80
2022-08-09T00:57:34.330Z,18.80
2022-08-09T01:00:21.246Z,18.80
2022-08-09T01:02:52.573Z,18.80
2022-08-09T01:05:53.471Z,18.80
2022-08-09T01:08:18.974Z,18.90
2022-08-09T01:11:08.616Z,18.90
2022-08-09T01:13:59.476Z,18.90
2022-08-09T01:16:35.084Z,18.90
2022-08-09T01:19:16.989Z,18.90
2022-08-09T01:22:25.680Z,18.90
2022-08-09T01:24:59.545Z,18.90
2022-08-09T01:27:30.462Z,18.90
2022-08-09T01:30:01.391Z,18.90
2022-08-09T01:32:34.152Z,18.90
2022-08-09T01:35:28.370Z,18.90
2022-08-09T01:38:07.907Z,18.90
2022-08-09T01:40:41.056Z,18.90
2022-08-09T01:43:10.631Z,18.80
2022-08-09T01:45:46.378Z,18.80
2022-08-09T01:48:17.061Z,18.80
2022-08-09T01:50:48.463Z,18.80
2022-08-09T01:53:19.235Z,18.80
2022-08-09T01:55:48.710Z,18.80
2022-08-09T01:58:18.333Z,18.80
2022-08-09T02:00:52.253Z,18.80
2022-08-09T02:03:21.614Z,18.80
2022-08-09T02:06:03.420Z,18.80
2022-08-09T02:08:41.211Z,18.80
2022-08-09T02:11:21.076Z,18.80
2022-08-09T02:14:07.387Z,18.80
2022-08-09T02:16:53.253Z,18.80
2022-08-09T02:19:38.959Z,18.70
2022-08-09T02:22:19.078Z,18.70
2022-08-09T02:24:55.806Z,18.60
2022-08-09T02:27:43.034Z,18.60
2022-08-09T02:30:13.909Z,18.60
2022-08-09T02:32:47.142Z,18.50
2022-08-09T02:35:23.079Z,18.50
2022-08-09T02:38:07.554Z,18.50
2022-08-09T02:40:36.356Z,18.50
2022-08-09T02:43:04.748Z,18.50
2022-08-09T02:45:36.921Z,18.60
2022-08-09T02:48:19.487Z,18.60
2022-08-09T02:50:58.300Z,18.60
2022-08-09T02:53:28.817Z,18.60
2022-08-09T02:56:01.026Z,18.50
2022-08-09T02:58:35.470Z,18.50
2022-08-09T03:01:11.072Z,18.50
2022-08-09T03:04:17.475Z,18.60
2022-08-09T03:06:31.739Z,18.60
2022-08-09T03:09:01.081Z,18.60
2022-08-09T03:12:04.258Z,18.60
2022-08-09T03:14:18.046Z,18.50
2022-08-09T03:16:48.483Z,18.50
2022-08-09T03:19:57.933Z,18.40
2022-08-09T03:22:12.491Z,18.50
2022-08-09T03:25:05.678Z,18.50
2022-08-09T03:27:45.482Z,18.50
2022-08-09T03:30:14.539Z,18.50
2022-08-09T03:33:00.844Z,18.40
2022-08-09T03:36:11.441Z,18.50
2022-08-09T03:38:28.654Z,18.50
2022-08-09T03:40:57.958Z,18.50
2022-08-09T03:43:31.465Z,18.50
2022-08-09T03:46:05.197Z,18.50
2022-08-09T03:48:51.984Z,18.40
2022-08-09T03:51:56.666Z,18.50
2022-08-09T03:54:10.911Z,18.50
2022-08-09T03:56:41.246Z,18.50
2022-08-09T03:59:17.047Z,18.40
2022-08-09T04:01:50.520Z,18.40
2022-08-09T04:04:20.436Z,18.40
2022-08-09T04:06:52.874Z,18.40
2022-08-09T04:09:48.375Z,18.50
2022-08-09T04:12:30.705Z,18.50
2022-08-09T04:15:02.474Z,18.50
2022-08-09T04:17:47.369Z,18.50
2022-08-09T04:20:17.660Z,18.50
2022-08-09T04:22:46.886Z,18.50
2022-08-09T04:25:15.161Z,18.60
2022-08-09T04:27:48.810Z,18.60
2022-08-09T04:30:20.936Z,18.60
2022-08-09T04:32:52.113Z,18.60
2022-08-09T04:35:23.966Z,18.70
2022-08-09T04:37:52.165Z,18.70
2022-08-09T04:40:36.077Z,18.70
2022-08-09T04:43:05.529Z,18.70
2022-08-09T04:45:35.743Z,18.70
2022-08-09T04:48:12.627Z,18.70
2022-08-09T04:50:42.823Z,18.70
2022-08-09T04:53:13.106Z,18.70
2022-08-09T04:55:58.306Z,18.70
2022-08-09T04:58:29.769Z,18.80
2022-08-09T05:00:59.898Z,18.70
2022-08-09T05:03:41.227Z,18.70
2022-08-09T05:06:25.861Z,18.70
2022-08-09T05:09:00.019Z,18.70
2022-08-09T05:11:32.387Z,18.70
2022-08-09T05:14:06.229Z,18.70
2022-08-09T05:16:57.998Z,18.80
2022-08-09T05:19:25.981Z,18.80
2022-08-09T05:22:01.303Z,18.80
2022-08-09T05:24:29.660Z,18.90
2022-08-09T05:26:58.129Z,19.00
2022-08-09T05:29:31.209Z,19.00
2022-08-09T05:32:01.144Z,19.10
2022-08-09T05:34:31.922Z,19.10
2022-08-09T05:37:06.170Z,19.10
2022-08-09T05:39:43.509Z,19.10
2022-08-09T05:42:17.661Z,19.20
2022-08-09T05:44:51.668Z,19.20
2022-08-09T05:47:21.664Z,19.30
2022-08-09T05:50:24.389Z,19.30
2022-08-09T05:52:41.730Z,19.30
2022-08-09T05:55:20.394Z,19.40
2022-08-09T05:57:50.735Z,19.40
2022-08-09T06:00:26.278Z,19.50
2022-08-09T06:02:57.258Z,19.60
2022-08-09T06:05:30.716Z,19.60
2022-08-09T06:08:19.658Z,19.60
2022-08-09T06:10:53.407Z,19.60
2022-08-09T06:13:22.342Z,19.60
2022-08-09T06:15:51.669Z,19.60
2022-08-09T06:18:25.305Z,19.70
2022-08-09T06:20:57.963Z,19.80
2022-08-09T06:23:57.192Z,19.80
2022-08-09T06:26:20.158Z,19.90
2022-08-09T06:29:01.018Z,20.00
2022-08-09T06:31:39.695Z,20.10
2022-08-09T06:34:22.660Z,20.20
2022-08-09T06:36:57.400Z,20.30
2022-08-09T06:39:48.610Z,20.40
2022-08-09T06:42:20.202Z,20.30
2022-08-09T06:44:54.546Z,20.20
2022-08-09T06:47:23.770Z,20.30
2022-08-09T06:50:13.268Z,20.30
2022-08-09T06:52:45.945Z,20.40
2022-08-09T06:55:18.003Z,20.50
2022-08-09T06:58:02.844Z,20.70
2022-08-09T07:00:49.305Z,20.80
2022-08-09T07:03:28.468Z,21.00
2022-08-09T07:06:03.547Z,21.20
2022-08-09T07:08:37.439Z,21.30
2022-08-09T07:11:12.652Z,21.30
2022-08-09T07:13:45.258Z,21.30
2022-08-09T07:16:42.348Z,21.30
2022-08-09T07:19:23.167Z,21.40
2022-08-09T07:21:56.987Z,21.50
2022-08-09T07:24:32.425Z,21.50
2022-08-09T07:27:33.051Z,21.60
2022-08-09T07:29:59.936Z,21.50
2022-08-09T07:32:33.059Z,21.40
2022-08-09T07:35:08.239Z,21.30
2022-08-09T07:37:44.217Z,21.40
2022-08-09T07:40:17.112Z,21.40
2022-08-09T07:43:14.779Z,21.40
2022-08-09T07:45:45.201Z,21.30
2022-08-09T07:48:22.609Z,21.30
2022-08-09T07:51:09.351Z,21.20
2022-08-09T07:54:07.781Z,21.20
2022-08-09T07:56:44.937Z,21.30
2022-08-09T07:59:25.745Z,21.40
2022-08-09T08:02:03.345Z,21.50
2022-08-09T08:04:34.193Z,21.60
2022-08-09T08:07:15.199Z,21.80
2022-08-09T08:10:08.894Z,21.90
2022-08-09T08:12:42.861Z,22.10
2022-08-09T08:15:16.923Z,22.20
2022-08-09T08:17:53.065Z,22.20
2022-08-09T08:20:29.017Z,22.30
2022-08-09T08:23:03.547Z,22.30
2022-08-09T08:25:40.068Z,22.50
2022-08-09T08:28:14.082Z,22.50
2022-08-09T08:30:44.243Z,22.50
2022-08-09T08:33:23.786Z,22.60
2022-08-09T08:36:00.137Z,22.70
2022-08-09T08:38:29.648Z,22.90
2022-08-09T08:40:58.682Z,23.10
2022-08-09T08:43:27.748Z,23.20
2022-08-09T08:46:25.011Z,23.10
2022-08-09T08:48:53.910Z,23.20
2022-08-09T08:51:23.127Z,23.10
2022-08-09T08:54:02.930Z,23.10
2022-08-09T08:56:34.168Z,23.20
2022-08-09T08:59:18.665Z,23.50
2022-08-09T09:01:52.808Z,23.70
2022-08-09T09:04:27.256Z,23.90
2022-08-09T09:06:57.804Z,24.00
2022-08-09T09:09:58.642Z,24.20
2022-08-09T09:12:17.129Z,24.30
2022-08-09T09:14:48.380Z,24.30
2022-08-09T09:17:18.378Z,24.40
2022-08-09T09:19:49.260Z,24.40
2022-08-09T09:22:26.728Z,24.40
2022-08-09T09:25:27.764Z,24.60
2022-08-09T09:28:03.665Z,24.70
2022-08-09T09:30:42.047Z,24.70
2022-08-09T09:33:16.631Z,24.50
2022-08-09T09:36:01.565Z,24.40
2022-08-09T09:38:46.670Z,24.40
2022-08-09T09:41:32.646Z,24.60
2022-08-09T09:44:25.367Z,24.80
2022-08-09T09:46:58.113Z,24.90
2022-08-09T09:49:56.498Z,25.00
2022-08-09T09:52:35.988Z,25.10
2022-08-09T09:55:16.356Z,25.10
2022-08-09T09:58:03.045Z,25.10
2022-08-09T10:00:33.558Z,25.00
2022-08-09T10:03:11.440Z,25.00
2022-08-09T10:06:05.067Z,25.10
2022-08-09T10:08:43.127Z,25.20
2022-08-09T10:14:26.082Z,25.30
2022-08-09T10:17:11.330Z,25.50
2022-08-09T10:19:47.495Z,25.70
2022-08-09T10:22:34.671Z,25.80
2022-08-09T10:25:11.204Z,25.80
2022-08-09T10:27:55.880Z,26.00
2022-08-09T10:32:21.011Z,26.00
2022-08-09T10:34:05.261Z,26.00
2022-08-09T10:36:04.556Z,26.00
2022-08-09T10:38:55.964Z,26.10
2022-08-09T10:41:22.807Z,26.20
2022-08-09T10:43:59.621Z,26.30
2022-08-09T10:48:20.232Z,26.30
2022-08-09T10:50:26.931Z,26.20
2022-08-09T10:53:10.622Z,26.50
2022-08-09T10:55:58.025Z,26.70
2022-08-09T10:58:33.464Z,26.80
2022-08-09T11:03:03.105Z,27.00
2022-08-09T11:04:31.490Z,27.00
2022-08-09T11:07:57.564Z,27.00
2022-08-09T11:11:00.822Z,26.80
2022-08-09T11:13:49.787Z,26.30
2022-08-09T11:16:37.302Z,26.00
2022-08-09T11:19:09.294Z,25.80
2022-08-09T11:21:57.337Z,25.70
2022-08-09T11:25:04.066Z,25.50
2022-08-09T11:28:04.705Z,25.50
2022-08-09T11:30:34.593Z,25.60
2022-08-09T11:33:06.143Z,25.80
2022-08-09T11:35:49.371Z,26.10
2022-08-09T11:38:22.135Z,26.50
2022-08-09T11:40:54.727Z,26.90
2022-08-09T11:43:43.509Z,27.10
2022-08-09T11:46:11.849Z,27.60
2022-08-09T11:48:50.358Z,27.80
2022-08-09T11:51:38.090Z,28.00
2022-08-09T11:54:21.452Z,28.20
2022-08-09T11:57:47.881Z,28.30
2022-08-09T12:00:29.279Z,28.00
2022-08-09T12:03:00.519Z,27.60
2022-08-09T12:05:48.858Z,27.40
2022-08-09T12:08:21.532Z,27.30
2022-08-09T12:10:52.931Z,27.10
2022-08-09T12:14:10.441Z,27.00
2022-08-09T12:16:30.255Z,27.00
2022-08-09T12:19:06.537Z,27.10
2022-08-09T12:21:38.746Z,27.30
2022-08-09T12:24:10.099Z,27.60
2022-08-09T12:26:40.838Z,27.70
2022-08-09T12:29:33.889Z,27.70
2022-08-09T12:32:08.376Z,27.70
2022-08-09T12:34:37.730Z,27.50
2022-08-09T12:37:09.749Z,27.40
2022-08-09T12:40:07.078Z,27.20
2022-08-09T12:42:37.255Z,26.90
2022-08-09T12:45:07.112Z,26.90
2022-08-09T12:47:56.468Z,26.90
2022-08-09T12:50:25.420Z,27.00
2022-08-09T12:53:08.472Z,27.20
2022-08-09T12:56:12.865Z,27.60
2022-08-09T12:58:27.891Z,28.10
2022-08-09T13:00:57.643Z,28.30
2022-08-09T13:03:53.724Z,28.30
2022-08-09T13:06:33.828Z,28.20
2022-08-09T13:09:08.518Z,28.10
2022-08-09T13:11:42.495Z,27.70
2022-08-09T13:14:41.587Z,27.60
2022-08-09T13:17:03.844Z,27.50
2022-08-09T13:20:09.646Z,27.40
2022-08-09T13:22:35.865Z,27.50
2022-08-09T13:25:13.895Z,27.50
2022-08-09T13:27:48.931Z,27.60
2022-08-09T13:31:11.109Z,27.60
2022-08-09T13:33:16.900Z,27.70
2022-08-09T13:36:38.768Z,27.60
2022-08-09T13:38:56.175Z,27.70
2022-08-09T13:41:57.551Z,27.60
2022-08-09T13:44:17.093Z,27.70
2022-08-09T13:47:27.489Z,27.90
2022-08-09T13:49:39.467Z,28.20
2022-08-09T13:52:25.005Z,28.40
2022-08-09T13:54:59.834Z,28.50
2022-08-09T13:57:36.459Z,28.80
2022-08-09T14:00:08.785Z,28.90
2022-08-09T14:02:42.304Z,29.00
2022-08-09T14:05:59.218Z,29.00
2022-08-09T14:08:15.945Z,29.10
2022-08-09T14:10:52.012Z,29.20
2022-08-09T14:14:15.152Z,29.00
2022-08-09T14:16:13.714Z,29.10
2022-08-09T14:18:45.970Z,29.20
2022-08-09T14:21:18.564Z,29.10
2022-08-09T14:23:55.284Z,29.20
2022-08-09T14:26:30.282Z,29.30
2022-08-09T14:29:03.236Z,29.10
2022-08-09T14:31:36.123Z,29.00
2022-08-09T14:34:31.201Z,29.00
2022-08-09T14:37:02.862Z,28.80
2022-08-09T14:39:45.134Z,28.40
2022-08-09T14:42:39.374Z,28.10
2022-08-09T14:46:58.475Z,27.90
2022-08-09T14:47:58.087Z,27.60
2022-08-09T14:50:31.649Z,27.30
2022-08-09T14:53:01.124Z,27.30
2022-08-09T14:55:32.267Z,27.20
2022-08-09T14:58:03.455Z,27.10
2022-08-09T15:00:33.493Z,27.10
2022-08-09T15:03:03.820Z,27.10
2022-08-09T15:05:32.779Z,27.00
2022-08-09T15:08:01.041Z,27.00
2022-08-09T15:10:31.801Z,26.90
2022-08-09T15:13:03.213Z,26.90
2022-08-09T15:15:34.463Z,26.90
2022-08-09T15:18:14.252Z,26.90
2022-08-09T15:22:00.438Z,26.90
2022-08-09T15:24:05.520Z,26.80
2022-08-09T15:26:31.322Z,26.70
2022-08-09T15:29:04.287Z,26.50
2022-08-09T15:31:41.915Z,26.40
2022-08-09T15:34:17.600Z,26.30
2022-08-09T15:37:04.315Z,26.20
2022-08-09T15:39:43.715Z,26.20
2022-08-09T15:42:22.772Z,26.10
2022-08-09T15:44:51.565Z,26.10
2022-08-09T15:47:22.602Z,26.10
2022-08-09T15:50:03.746Z,26.10
2022-08-09T15:52:35.343Z,26.20
2022-08-09T15:55:04.164Z,26.10
2022-08-09T15:57:44.508Z,26.00
2022-08-09T16:00:25.179Z,26.00
2022-08-09T16:02:56.073Z,26.00
2022-08-09T16:05:26.644Z,26.10
2022-08-09T16:08:24.772Z,26.10
2022-08-09T16:11:00.084Z,26.10
2022-08-09T16:14:03.488Z,26.00
2022-08-09T16:16:19.811Z,26.00
2022-08-09T16:18:48.123Z,26.00
2022-08-09T16:21:17.504Z,25.90
2022-08-09T16:23:55.729Z,25.90
2022-08-09T16:26:34.593Z,25.90
2022-08-09T16:29:11.447Z,25.90
2022-08-09T16:32:19.085Z,25.90
2022-08-09T16:34:55.990Z,26.00
2022-08-09T16:37:18.547Z,25.90
2022-08-09T16:39:48.220Z,25.90
2022-08-09T16:42:32.894Z,25.80
2022-08-09T16:45:02.472Z,25.80
2022-08-09T16:48:39.217Z,25.80
2022-08-09T16:50:32.578Z,25.90
2022-08-09T16:53:02.388Z,25.90
2022-08-09T16:56:00.134Z,25.90
2022-08-09T16:58:21.109Z,25.90
2022-08-09T17:00:51.000Z,25.90
2022-08-09T17:03:21.303Z,25.90
2022-08-09T17:06:08.775Z,25.80
2022-08-09T17:08:58.903Z,25.80
2022-08-09T17:11:40.029Z,25.80
2022-08-09T17:14:25.380Z,25.80
2022-08-09T17:16:59.399Z,25.80
2022-08-09T17:20:05.031Z,25.80
2022-08-09T17:22:23.730Z,25.80
2022-08-09T17:24:54.888Z,25.70
2022-08-09T17:27:23.894Z,25.70
2022-08-09T17:29:52.240Z,25.60
2022-08-09T17:32:26.646Z,25.60
2022-08-09T17:35:11.717Z,25.50
2022-08-09T17:38:14.380Z,25.50
2022-08-09T17:40:29.867Z,25.40
2022-08-09T17:42:59.763Z,25.30
2022-08-09T17:46:03.040Z,25.20
2022-08-09T17:48:29.576Z,25.20
2022-08-09T17:50:59.535Z,25.00
2022-08-09T17:53:43.484Z,25.00
2022-08-09T17:56:18.159Z,24.90
2022-08-09T17:58:47.011Z,24.80
2022-08-09T18:01:22.461Z,24.70
2022-08-09T18:03:54.521Z,24.70
2022-08-09T18:06:31.861Z,24.60
2022-08-09T18:09:03.092Z,24.60
2022-08-09T18:12:05.626Z,24.50
2022-08-09T18:14:21.863Z,24.50
2022-08-09T18:16:50.142Z,24.40
2022-08-09T18:20:58.967Z,24.30
2022-08-09T18:22:16.843Z,24.20
2022-08-09T18:24:46.462Z,24.20
2022-08-09T18:27:49.076Z,24.10
2022-08-09T18:30:34.897Z,24.00
2022-08-09T18:32:54.517Z,24.00
2022-08-09T18:35:59.384Z,23.90
2022-08-09T18:38:13.162Z,23.80
2022-08-09T18:40:42.981Z,23.70
2022-08-09T18:43:12.766Z,23.60
2022-08-09T18:46:46.547Z,23.50
2022-08-09T18:48:30.485Z,23.40
2022-08-09T18:51:02.537Z,23.30
2022-08-09T18:54:00.530Z,23.20
2022-08-09T18:56:27.091Z,23.10
2022-08-09T18:58:56.898Z,23.10
2022-08-09T19:01:25.680Z,23.00
2022-08-09T19:04:01.689Z,23.00
2022-08-09T19:06:38.681Z,22.90
2022-08-09T19:09:07.581Z,22.80
2022-08-09T19:11:37.840Z,22.70
2022-08-09T19:14:06.974Z,22.70
2022-08-09T19:16:36.615Z,22.60
2022-08-09T19:19:21.521Z,22.60
2022-08-09T19:22:05.085Z,22.50
2022-08-09T19:25:11.366Z,22.50
2022-08-09T19:27:24.011Z,22.40
2022-08-09T19:30:22.566Z,22.30
2022-08-09T19:32:45.473Z,22.30
2022-08-09T19:35:17.598Z,22.20
2022-08-09T19:37:56.380Z,22.10
2022-08-09T19:40:34.393Z,22.10
2022-08-09T19:43:05.425Z,22.10
2022-08-09T19:45:42.117Z,22.00
2022-08-09T19:48:11.871Z,22.00
2022-08-09T19:50:48.967Z,21.90
2022-08-09T19:53:21.465Z,21.90
2022-08-09T19:56:02.765Z,21.80
2022-08-09T19:58:35.773Z,21.70
2022-08-09T20:01:04.350Z,21.70
2022-08-09T20:04:25.191Z,21.70
2022-08-09T20:06:23.938Z,21.60
2022-08-09T20:08:59.777Z,21.50
2022-08-09T20:11:43.392Z,21.50
2022-08-09T20:14:16.532Z,21.40
2022-08-09T20:16:53.365Z,21.40
2022-08-09T20:19:48.176Z,21.30
2022-08-09T20:22:14.265Z,21.20
2022-08-09T20:24:53.512Z,21.20
2022-08-09T20:27:22.608Z,21.10
2022-08-09T20:29:50.846Z,21.10
2022-08-09T20:32:33.252Z,21.10
2022-08-09T20:35:02.620Z,21.00
2022-08-09T20:38:19.339Z,21.00
2022-08-09T20:40:26.683Z,20.90
2022-08-09T20:42:59.737Z,20.90
2022-08-09T20:45:59.344Z,20.80
2022-08-09T20:48:29.037Z,20.80
2022-08-09T20:50:59.118Z,20.70
2022-08-09T20:53:37.805Z,20.70
2022-08-09T20:56:17.315Z,20.60
2022-08-09T20:58:58.040Z,20.50
2022-08-09T21:01:34.635Z,20.50
2022-08-09T21:05:53.039Z,20.50
2022-08-09T21:07:12.619Z,20.40
2022-08-09T21:09:55.334Z,20.40
2022-08-09T21:12:56.442Z,20.30
2022-08-09T21:15:15.443Z,20.30
2022-08-09T21:18:20.824Z,20.30
2022-08-09T21:20:32.307Z,20.20
2022-08-09T21:23:00.944Z,20.20
2022-08-09T21:25:55.978Z,20.20
2022-08-09T21:28:34.142Z,20.10
2022-08-09T21:31:17.416Z,20.00
2022-08-09T21:33:50.854Z,20.00
2022-08-09T21:36:22.969Z,19.90
2022-08-09T21:38:57.167Z,19.90
2022-08-09T21:42:04.189Z,19.80
2022-08-09T21:44:33.196Z,19.80
2022-08-09T21:47:05.014Z,19.80
2022-08-09T21:49:39.322Z,19.70
2022-08-09T21:52:16.437Z,19.60
2022-08-09T21:54:50.786Z,19.60
2022-08-09T21:57:38.920Z,19.50
2022-08-09T22:00:26.033Z,19.50
2022-08-09T22:02:58.831Z,19.50
2022-08-09T22:05:36.058Z,19.40
2022-08-09T22:08:06.682Z,19.40
2022-08-09T22:11:49.204Z,19.40
2022-08-09T22:13:31.458Z,19.30
2022-08-09T22:16:07.333Z,19.30
2022-08-09T22:18:37.637Z,19.20
2022-08-09T22:21:09.464Z,19.20
2022-08-09T22:24:01.692Z,19.10
2022-08-09T22:26:35.528Z,19.10
2022-08-09T22:29:09.150Z,19.00
2022-08-09T22:31:53.155Z,19.00
2022-08-09T22:34:26.490Z,19.00
2022-08-09T22:36:55.974Z,18.90
2022-08-09T22:39:58.115Z,18.90
2022-08-09T22:42:16.184Z,18.90
2022-08-09T22:48:05.207Z,18.80
2022-08-09T22:48:13.130Z,18.80
2022-08-09T22:50:29.682Z,18.80
2022-08-09T22:52:58.716Z,18.70
2022-08-09T22:55:39.322Z,18.70
2022-08-09T22:58:30.456Z,18.60
2022-08-09T23:01:02.376Z,18.60
2022-08-09T23:04:03.576Z,18.50
2022-08-09T23:06:29.892Z,18.50
2022-08-09T23:09:04.988Z,18.50
2022-08-09T23:11:33.226Z,18.50
2022-08-09T23:14:02.920Z,18.40
2022-08-09T23:16:31.300Z,18.30
2022-08-09T23:19:00.907Z,18.30
2022-08-09T23:21:33.485Z,18.30
2022-08-09T23:24:06.990Z,18.20
2022-08-09T23:26:36.296Z,18.20
2022-08-09T23:29:05.129Z,18.20
2022-08-09T23:31:33.491Z,18.20
2022-08-09T23:34:03.922Z,18.20
2022-08-09T23:36:32.649Z,18.10
2022-08-09T23:39:00.988Z,18.10
2022-08-09T23:41:29.767Z,18.10
2022-08-09T23:43:59.724Z,18.10
2022-08-09T23:46:28.270Z,18.00
2022-08-09T23:48:56.690Z,18.00
2022-08-09T23:51:26.500Z,17.90
2022-08-09T23:54:02.146Z,17.90
2022-08-09T23:56:53.766Z,17.90
2022-08-09T23:59:21.217Z,17.90
